createdAt,value
2022-12-14T00:01:41.898Z,97240.97
2022-12-14T00:04:12.104Z,97236.69
2022-12-14T00:06:39.207Z,97243.06
2022-12-14T00:09:06.260Z,97233.88
2022-12-14T00:11:34.430Z,97226.94
2022-12-14T00:14:03.102Z,97218.94
2022-12-14T00:16:31.818Z,97210.47
2022-12-14T00:19:00.295Z,97211.22
2022-12-14T00:21:28.047Z,97216.56
2022-12-14T00:23:55.916Z,97199.34
2022-12-14T00:26:25.162Z,97211.22
2022-12-14T00:28:53.509Z,97192.53
2022-12-14T00:31:21.794Z,97182.28
2022-12-14T00:33:50.332Z,97175.03
2022-12-14T00:36:17.826Z,97189.56
2022-12-14T00:38:45.209Z,97181.97
2022-12-14T00:41:12.638Z,97179.31
2022-12-14T00:43:40.819Z,97179.88
2022-12-14T00:46:08.348Z,97171.88
2022-12-14T00:48:35.554Z,97177.66
2022-12-14T00:51:02.929Z,97180.00
2022-12-14T00:53:30.150Z,97180.00
2022-12-14T00:55:57.260Z,97193.34
2022-12-14T00:58:25.460Z,97192.31
2022-12-14T01:01:04.288Z,97195.88
2022-12-14T01:03:32.249Z,97202.81
2022-12-14T01:05:59.920Z,97194.38
2022-12-14T01:08:35.548Z,97202.81
2022-12-14T01:11:07.800Z,97200.28
2022-12-14T01:13:36.419Z,97197.91
2022-12-14T01:16:08.802Z,97189.91
2022-12-14T01:18:37.599Z,97188.41
2022-12-14T01:21:12.575Z,97176.25
2022-12-14T01:23:40.514Z,97169.88
2022-12-14T01:26:07.868Z,97159.22
2022-12-14T01:28:35.073Z,97162.28
2022-12-14T01:31:10.490Z,97164.84
2022-12-14T01:33:37.979Z,97158.31
2022-12-14T01:36:11.381Z,97172.56
2022-12-14T01:38:38.561Z,97153.00
2022-12-14T01:41:06.493Z,97148.84
2022-12-14T01:43:50.561Z,97163.22
2022-12-14T01:46:25.288Z,97171.22
2022-12-14T01:48:56.216Z,97157.88
2022-12-14T01:51:25.500Z,97150.63
2022-12-14T01:53:53.160Z,97159.38
2022-12-14T01:56:20.182Z,97155.84
2022-12-14T01:58:47.286Z,97152.28
2022-12-14T02:01:15.240Z,97153.75
2022-12-14T02:03:47.906Z,97151.38
2022-12-14T02:06:26.744Z,97157.47
2022-12-14T02:08:54.912Z,97159.72
2022-12-14T02:11:46.853Z,97153.94
2022-12-14T02:14:13.950Z,97150.22
2022-12-14T02:16:41.283Z,97149.34
2022-12-14T02:19:08.526Z,97152.31
2022-12-14T02:21:49.686Z,97153.78
2022-12-14T02:24:44.411Z,97154.84
2022-12-14T02:27:37.805Z,97159.31
2022-12-14T02:30:12.653Z,97162.28
2022-12-14T02:32:57.832Z,97151.88
2022-12-14T02:35:36.876Z,97140.47
2022-12-14T02:38:27.087Z,97139.31
2022-12-14T02:41:16.811Z,97127.13
2022-12-14T02:44:07.869Z,97124.03
2022-12-14T02:47:03.358Z,97119.56
2022-12-14T02:49:49.124Z,97120.63
2022-12-14T02:52:35.275Z,97122.09
2022-12-14T02:55:42.854Z,97109.03
2022-12-14T02:58:37.878Z,97105.47
2022-12-14T03:01:05.468Z,97104.28
2022-12-14T03:03:32.627Z,97101.63
2022-12-14T03:06:14.519Z,97103.13
2022-12-14T03:08:43.915Z,97095.69
2022-12-14T03:11:15.546Z,97096.00
2022-12-14T03:13:50.354Z,97088.31
2022-12-14T03:16:22.764Z,97086.78
2022-12-14T03:18:57.960Z,97084.44
2022-12-14T03:21:28.317Z,97077.75
2022-12-14T03:23:56.246Z,97081.78
2022-12-14T03:26:34.751Z,97061.00
2022-12-14T03:29:08.956Z,97069.00
2022-12-14T03:31:44.204Z,97066.50
2022-12-14T03:34:17.608Z,97071.97
2022-12-14T03:36:50.504Z,97062.78
2022-12-14T03:39:22.005Z,97071.84
2022-12-14T03:41:59.941Z,97062.94
2022-12-14T03:44:48.880Z,97054.03
2022-12-14T03:47:44.737Z,97049.28
2022-12-14T03:50:19.980Z,97052.97
2022-12-14T03:53:01.888Z,97042.91
2022-12-14T03:55:48.883Z,97050.16
2022-12-14T03:58:28.823Z,97035.34
2022-12-14T04:00:58.648Z,97028.06
2022-12-14T04:03:54.686Z,97033.13
2022-12-14T04:06:39.010Z,97030.88
2022-12-14T04:09:36.475Z,97029.25
2022-12-14T04:12:47.950Z,97019.44
2022-12-14T04:15:44.018Z,97012.78
2022-12-14T04:18:34.747Z,97016.03
2022-12-14T04:21:09.528Z,97014.25
2022-12-14T04:23:59.915Z,96999.88
2022-12-14T04:26:31.835Z,96990.66
2022-12-14T04:29:30.254Z,96988.41
2022-12-14T04:32:07.287Z,96982.34
2022-12-14T04:34:35.826Z,96974.78
2022-12-14T04:37:06.376Z,96969.44
2022-12-14T04:39:54.665Z,96954.16
2022-12-14T04:42:27.239Z,96950.28
2022-12-14T04:44:56.814Z,96949.88
2022-12-14T04:47:29.533Z,96952.97
2022-12-14T04:50:10.791Z,96936.66
2022-12-14T04:52:51.497Z,96930.00
2022-12-14T04:55:38.679Z,96931.16
2022-12-14T04:58:13.649Z,96924.78
2022-12-14T05:00:54.280Z,96931.16
2022-12-14T05:03:28.738Z,96918.56
2022-12-14T05:06:06.490Z,96921.66
2022-12-14T05:08:54.684Z,96917.06
2022-12-14T05:11:52.529Z,96909.78
2022-12-14T05:14:24.826Z,96908.91
2022-12-14T05:16:51.961Z,96913.06
2022-12-14T05:19:20.613Z,96904.75
2022-12-14T05:21:47.861Z,96907.72
2022-12-14T05:24:16.083Z,96889.31
2022-12-14T05:26:43.864Z,96887.25
2022-12-14T05:29:11.250Z,96883.84
2022-12-14T05:31:38.419Z,96882.66
2022-12-14T05:34:05.490Z,96880.28
2022-12-14T05:36:32.638Z,96879.81
2022-12-14T05:39:00.843Z,96874.47
2022-12-14T05:41:27.889Z,96866.19
2022-12-14T05:43:54.983Z,96864.25
2022-12-14T05:46:22.041Z,96848.06
2022-12-14T05:48:49.657Z,96851.66
2022-12-14T05:51:17.343Z,96840.69
2022-12-14T05:53:44.658Z,96840.38
2022-12-14T05:56:12.023Z,96849.88
2022-12-14T05:58:39.568Z,96845.72
2022-12-14T06:01:12.770Z,96833.84
2022-12-14T06:03:42.831Z,96836.50
2022-12-14T06:06:12.039Z,96852.13
2022-12-14T06:08:41.287Z,96853.41
2022-12-14T06:11:13.870Z,96846.75
2022-12-14T06:13:42.039Z,96854.31
2022-12-14T06:16:15.745Z,96850.28
2022-12-14T06:18:46.168Z,96844.78
2022-12-14T06:21:14.462Z,96847.28
2022-12-14T06:23:42.037Z,96836.91
2022-12-14T06:26:10.087Z,96845.94
2022-12-14T06:28:37.614Z,96851.41
2022-12-14T06:31:05.568Z,96840.53
2022-12-14T06:33:34.975Z,96840.53
2022-12-14T06:36:03.081Z,96850.63
2022-12-14T06:38:30.268Z,96846.31
2022-12-14T06:40:57.434Z,96852.97
2022-12-14T06:43:26.239Z,96851.03
2022-12-14T06:45:53.835Z,96850.75
2022-12-14T06:48:21.085Z,96847.31
2022-12-14T06:50:48.933Z,96846.44
2022-12-14T06:53:16.067Z,96842.56
2022-12-14T06:55:43.514Z,96841.66
2022-12-14T06:58:16.304Z,96844.22
2022-12-14T07:00:44.411Z,96845.84
2022-12-14T07:03:11.644Z,96841.41
2022-12-14T07:05:41.956Z,96839.22
2022-12-14T07:08:11.540Z,96831.94
2022-12-14T07:10:38.912Z,96835.94
2022-12-14T07:13:06.029Z,96831.06
2022-12-14T07:15:33.189Z,96825.88
2022-12-14T07:18:00.332Z,96820.53
2022-12-14T07:20:27.472Z,96824.84
2022-12-14T07:22:54.761Z,96818.47
2022-12-14T07:25:21.911Z,96825.47
2022-12-14T07:27:49.019Z,96826.22
2022-12-14T07:30:16.217Z,96813.59
2022-12-14T07:32:43.356Z,96810.19
2022-12-14T07:35:16.242Z,96807.06
2022-12-14T07:37:43.778Z,96809.44
2022-12-14T07:40:17.072Z,96807.38
2022-12-14T07:42:44.188Z,96799.09
2022-12-14T07:45:11.431Z,96796.53
2022-12-14T07:47:38.564Z,96799.31
2022-12-14T07:50:06.184Z,96808.72
2022-12-14T07:52:37.423Z,96791.34
2022-12-14T07:55:05.180Z,96784.06
2022-12-14T07:57:34.255Z,96789.56
2022-12-14T08:00:01.413Z,96776.94
2022-12-14T08:02:28.708Z,96775.28
2022-12-14T08:04:55.961Z,96775.56
2022-12-14T08:07:23.108Z,96773.94
2022-12-14T08:09:50.232Z,96755.66
2022-12-14T08:12:17.334Z,96768.00
2022-12-14T08:14:44.468Z,96767.53
2022-12-14T08:17:11.573Z,96762.50
2022-12-14T08:19:38.747Z,96762.31
2022-12-14T08:22:05.991Z,96763.34
2022-12-14T08:24:33.067Z,96760.06
2022-12-14T08:27:00.193Z,96754.44
2022-12-14T08:29:27.319Z,96754.78
2022-12-14T08:31:57.966Z,96752.84
2022-12-14T08:34:25.110Z,96741.97
2022-12-14T08:36:52.315Z,96746.88
2022-12-14T08:39:19.552Z,96742.66
2022-12-14T08:41:46.686Z,96731.81
2022-12-14T08:44:17.077Z,96725.25
2022-12-14T08:46:44.230Z,96726.38
2022-12-14T08:49:11.787Z,96719.84
2022-12-14T08:51:38.993Z,96715.47
2022-12-14T08:54:06.331Z,96716.41
2022-12-14T08:56:33.491Z,96722.41
2022-12-14T08:59:00.625Z,96720.56
2022-12-14T09:01:33.499Z,96718.75
2022-12-14T09:04:05.647Z,96714.50
2022-12-14T09:06:35.109Z,96699.47
2022-12-14T09:09:02.520Z,96694.22
2022-12-14T09:11:29.672Z,96690.34
2022-12-14T09:13:56.853Z,96697.16
2022-12-14T09:16:26.394Z,96696.97
2022-12-14T09:18:54.316Z,96688.50
2022-12-14T09:21:22.129Z,96692.19
2022-12-14T09:23:52.609Z,96685.00
2022-12-14T09:26:23.645Z,96682.84
2022-12-14T09:28:55.333Z,96687.47
2022-12-14T09:31:24.509Z,96680.19
2022-12-14T09:33:51.750Z,96664.38
2022-12-14T09:36:21.688Z,96658.13
2022-12-14T09:38:55.056Z,96659.50
2022-12-14T09:41:34.464Z,96662.56
2022-12-14T09:44:18.741Z,96659.50
2022-12-14T09:47:04.332Z,96661.66
2022-12-14T09:49:41.634Z,96663.31
2022-12-14T09:52:21.433Z,96659.16
2022-12-14T09:54:50.078Z,96642.56
2022-12-14T09:57:29.210Z,96640.06
2022-12-14T09:59:56.495Z,96638.88
2022-12-14T10:03:04.509Z,96635.53
2022-12-14T10:05:56.765Z,96640.50
2022-12-14T10:08:35.332Z,96640.34
2022-12-14T10:11:30.529Z,96641.72
2022-12-14T10:14:23.655Z,96624.19
2022-12-14T10:17:09.655Z,96617.91
2022-12-14T10:19:42.196Z,96634.53
2022-12-14T10:22:13.333Z,96641.34
2022-12-14T10:24:46.272Z,96641.34
2022-12-14T10:27:24.591Z,96642.81
2022-12-14T10:30:05.081Z,96632.31
2022-12-14T10:32:35.268Z,96641.34
2022-12-14T10:35:13.686Z,96624.09
2022-12-14T10:37:44.395Z,96623.63
2022-12-14T10:40:30.799Z,96619.94
2022-12-14T10:43:18.723Z,96614.13
2022-12-14T10:46:25.153Z,96618.81
2022-12-14T10:49:02.999Z,96620.81
2022-12-14T10:51:40.755Z,96615.94
2022-12-14T10:54:22.497Z,96617.03
2022-12-14T10:56:50.572Z,96612.72
2022-12-14T10:59:21.343Z,96624.94
2022-12-14T11:01:52.146Z,96625.03
2022-12-14T11:04:29.623Z,96607.75
2022-12-14T11:06:59.524Z,96617.22
2022-12-14T11:09:27.333Z,96618.38
2022-12-14T11:11:59.980Z,96627.91
2022-12-14T11:14:27.934Z,96625.25
2022-12-14T11:16:55.299Z,96618.22
2022-12-14T11:19:24.386Z,96617.25
2022-12-14T11:22:05.791Z,96607.84
2022-12-14T11:24:35.717Z,96608.13
2022-12-14T11:27:03.806Z,96610.06
2022-12-14T11:29:33.529Z,96603.75
2022-12-14T11:32:00.799Z,96598.88
2022-12-14T11:34:35.814Z,96594.53
2022-12-14T11:37:11.974Z,96595.72
2022-12-14T11:39:41.652Z,96588.91
2022-12-14T11:42:16.604Z,96591.56
2022-12-14T11:44:44.847Z,96581.81
2022-12-14T11:47:17.879Z,96577.19
2022-12-14T11:49:47.906Z,96583.53
2022-12-14T11:52:19.874Z,96585.75
2022-12-14T11:55:03.570Z,96590.38
2022-12-14T11:57:32.586Z,96579.41
2022-12-14T12:00:16.942Z,96575.16
2022-12-14T12:02:50.423Z,96569.94
2022-12-14T12:05:20.386Z,96570.50
2022-12-14T12:07:50.583Z,96568.06
2022-12-14T12:10:23.541Z,96565.59
2022-12-14T12:13:01.307Z,96571.22
2022-12-14T12:15:35.339Z,96575.56
2022-12-14T12:18:08.646Z,96574.09
2022-12-14T12:20:40.113Z,96572.63
2022-12-14T12:23:13.211Z,96567.81
2022-12-14T12:25:40.989Z,96566.13
2022-12-14T12:28:22.292Z,96562.50
2022-12-14T12:30:51.553Z,96562.06
2022-12-14T12:33:54.024Z,96561.72
2022-12-14T12:36:24.110Z,96563.09
2022-12-14T12:39:06.357Z,96559.69
2022-12-14T12:41:41.362Z,96560.44
2022-12-14T12:44:22.793Z,96554.81
2022-12-14T12:47:24.809Z,96553.25
2022-12-14T12:49:52.389Z,96558.09
2022-12-14T12:52:25.344Z,96558.53
2022-12-14T12:55:02.068Z,96544.41
2022-12-14T12:57:33.368Z,96547.44
2022-12-14T13:00:01.165Z,96531.13
2022-12-14T13:02:31.726Z,96529.44
2022-12-14T13:05:45.120Z,96530.91
2022-12-14T13:08:08.120Z,96523.56
2022-12-14T13:10:50.578Z,96511.38
2022-12-14T13:13:33.066Z,96507.50
2022-12-14T13:16:14.514Z,96504.13
2022-12-14T13:21:43.909Z,96512.16
2022-12-14T13:24:17.707Z,96511.16
2022-12-14T13:27:15.518Z,96515.06
2022-12-14T13:29:59.676Z,96514.25
2022-12-14T13:32:44.597Z,96522.53
2022-12-14T13:35:36.959Z,96511.72
2022-12-14T13:38:20.073Z,96506.72
2022-12-14T13:41:19.217Z,96502.44
2022-12-14T13:44:31.187Z,96510.50
2022-12-14T13:47:05.555Z,96515.28
2022-12-14T13:49:33.458Z,96505.81
2022-12-14T13:52:00.833Z,96507.53
2022-12-14T13:54:34.790Z,96503.13
2022-12-14T13:57:07.810Z,96504.75
2022-12-14T13:59:54.605Z,96493.44
2022-12-14T14:02:27.676Z,96495.56
2022-12-14T14:05:18.712Z,96491.63
2022-12-14T14:07:53.623Z,96499.41
2022-12-14T14:10:36.768Z,96506.50
2022-12-14T14:13:28.821Z,96506.28
2022-12-14T14:19:08.953Z,96499.00
2022-12-14T14:21:58.907Z,96496.66
2022-12-14T14:24:28.088Z,96501.81
2022-12-14T14:27:02.932Z,96501.94
2022-12-14T14:29:31.203Z,96508.97
2022-12-14T14:31:59.540Z,96501.88
2022-12-14T14:34:44.763Z,96514.31
2022-12-14T14:37:22.259Z,96509.50
2022-12-14T14:40:29.437Z,96516.88
2022-12-14T14:43:07.778Z,96513.72
2022-12-14T14:45:36.644Z,96509.84
2022-12-14T14:48:24.076Z,96515.19
2022-12-14T14:51:22.534Z,96511.72
2022-12-14T14:54:56.131Z,96520.75
2022-12-14T14:57:35.455Z,96520.75
2022-12-14T15:00:04.981Z,96511.78
2022-12-14T15:02:34.416Z,96511.31
2022-12-14T15:07:49.496Z,96514.88
2022-12-14T15:10:42.184Z,96510.91
2022-12-14T15:13:18.940Z,96506.97
2022-12-14T15:15:47.270Z,96509.19
2022-12-14T15:18:22.976Z,96521.09
2022-12-14T15:21:16.080Z,96517.69
2022-12-14T15:23:49.505Z,96512.81
2022-12-14T15:26:26.042Z,96504.69
2022-12-14T15:28:55.560Z,96505.91
2022-12-14T15:31:38.333Z,96516.78
2022-12-14T15:34:05.788Z,96503.16
2022-12-14T15:36:37.484Z,96503.63
2022-12-14T15:39:04.877Z,96516.38
2022-12-14T15:41:33.412Z,96517.31
2022-12-14T15:44:00.942Z,96517.31
2022-12-14T15:46:35.114Z,96517.84
2022-12-14T15:49:05.298Z,96510.09
2022-12-14T15:51:35.577Z,96505.69
2022-12-14T15:54:04.049Z,96514.56
2022-12-14T15:56:33.713Z,96519.63
2022-12-14T15:59:03.875Z,96529.59
2022-12-14T16:01:34.479Z,96537.84
2022-12-14T16:04:05.838Z,96530.28
2022-12-14T16:06:37.630Z,96535.81
2022-12-14T16:09:06.043Z,96540.97
2022-12-14T16:11:37.904Z,96535.97
2022-12-14T16:14:16.390Z,96533.00
2022-12-14T16:16:43.836Z,96527.88
2022-12-14T16:19:27.309Z,96532.75
2022-12-14T16:22:16.890Z,96532.38
2022-12-14T16:25:07.596Z,96530.16
2022-12-14T16:27:49.974Z,96534.03
2022-12-14T16:30:24.584Z,96528.22
2022-12-14T16:33:13.782Z,96536.44
2022-12-14T16:35:40.924Z,96525.72
2022-12-14T16:38:16.598Z,96529.69
2022-12-14T16:40:53.695Z,96535.38
2022-12-14T16:43:28.628Z,96528.19
2022-12-14T16:46:05.334Z,96533.41
2022-12-14T16:48:35.867Z,96542.50
2022-12-14T16:51:32.615Z,96546.75
2022-12-14T16:54:13.383Z,96539.69
2022-12-14T16:56:45.422Z,96541.31
2022-12-14T16:59:38.746Z,96527.06
2022-12-14T17:02:06.257Z,96532.06
2022-12-14T17:04:36.885Z,96530.97
2022-12-14T17:07:04.129Z,96542.84
2022-12-14T17:09:33.443Z,96530.50
2022-12-14T17:12:06.592Z,96532.44
2022-12-14T17:14:33.666Z,96531.50
2022-12-14T17:17:01.840Z,96528.34
2022-12-14T17:19:35.922Z,96535.13
2022-12-14T17:22:04.335Z,96537.06
2022-12-14T17:24:32.070Z,96529.78
2022-12-14T17:26:59.355Z,96530.28
2022-12-14T17:29:28.542Z,96537.41
2022-12-14T17:32:01.158Z,96544.88
2022-12-14T17:34:29.249Z,96546.91
2022-12-14T17:36:57.013Z,96557.22
2022-12-14T17:39:24.810Z,96559.03
2022-12-14T17:41:52.188Z,96556.41
2022-12-14T17:44:20.745Z,96554.56
2022-12-14T17:46:52.145Z,96561.66
2022-12-14T17:49:34.390Z,96556.50
2022-12-14T17:52:07.253Z,96552.63
2022-12-14T17:54:34.304Z,96563.88
2022-12-14T17:57:01.389Z,96560.47
2022-12-14T17:59:28.573Z,96567.00
2022-12-14T18:01:55.792Z,96569.41
2022-12-14T18:04:22.990Z,96562.84
2022-12-14T18:06:50.044Z,96569.03
2022-12-14T18:09:18.472Z,96555.16
2022-12-14T18:12:21.081Z,96557.31
2022-12-14T18:14:32.543Z,96569.28
2022-12-14T18:17:00.901Z,96572.31
2022-12-14T18:19:29.801Z,96579.88
2022-12-14T18:21:56.892Z,96577.72
2022-12-14T18:24:26.196Z,96575.31
2022-12-14T18:26:53.506Z,96577.06
2022-12-14T18:29:20.789Z,96578.31
2022-12-14T18:31:49.742Z,96573.22
2022-12-14T18:34:17.441Z,96582.56
2022-12-14T18:36:44.462Z,96579.41
2022-12-14T18:39:11.595Z,96575.47
2022-12-14T18:41:38.706Z,96591.81
2022-12-14T18:44:05.766Z,96594.75
2022-12-14T18:46:32.987Z,96597.16
2022-12-14T18:49:00.230Z,96594.75
2022-12-14T18:51:27.439Z,96594.47
2022-12-14T18:53:56.205Z,96600.09
2022-12-14T18:56:25.328Z,96601.22
2022-12-14T18:58:52.530Z,96599.28
2022-12-14T19:01:23.949Z,96601.22
2022-12-14T19:03:51.662Z,96612.16
2022-12-14T19:09:10.898Z,96621.59
2022-12-14T19:11:40.098Z,96622.31
2022-12-14T19:14:07.442Z,96615.91
2022-12-14T19:16:34.661Z,96631.97
2022-12-14T19:19:02.045Z,96626.59
2022-12-14T19:21:31.063Z,96632.69
2022-12-14T19:23:59.466Z,96636.41
2022-12-14T19:26:28.360Z,96638.59
2022-12-14T19:28:58.893Z,96639.34
2022-12-14T19:31:26.037Z,96635.72
2022-12-14T19:33:53.759Z,96632.53
2022-12-14T19:36:20.808Z,96635.84
2022-12-14T19:38:49.577Z,96637.63
2022-12-14T19:41:20.018Z,96637.78
2022-12-14T19:43:47.402Z,96631.97
2022-12-14T19:46:16.058Z,96632.66
2022-12-14T19:48:44.217Z,96634.13
2022-12-14T19:51:12.573Z,96644.34
2022-12-14T19:53:41.076Z,96652.88
2022-12-14T19:56:08.975Z,96654.25
2022-12-14T19:58:36.174Z,96653.03
2022-12-14T20:01:11.149Z,96653.25
2022-12-14T20:03:39.179Z,96663.13
2022-12-14T20:06:06.759Z,96660.94
2022-12-14T20:08:34.744Z,96660.56
2022-12-14T20:11:09.659Z,96660.50
2022-12-14T20:13:37.193Z,96659.50
2022-12-14T20:16:04.440Z,96662.75
2022-12-14T20:18:31.887Z,96661.44
2022-12-14T20:26:55.920Z,96661.81
2022-12-14T20:29:23.098Z,96662.75
2022-12-14T20:31:50.228Z,96662.94
2022-12-14T20:34:17.466Z,96674.75
2022-12-14T20:36:44.550Z,96671.78
2022-12-14T20:39:11.698Z,96671.97
2022-12-14T20:41:38.979Z,96669.88
2022-12-14T20:44:13.733Z,96670.50
2022-12-14T20:46:43.108Z,96662.28
2022-12-14T20:49:15.590Z,96658.59
2022-12-14T20:51:43.962Z,96655.25
2022-12-14T20:54:13.238Z,96672.84
2022-12-14T20:56:40.416Z,96672.47
2022-12-14T20:59:08.012Z,96672.66
2022-12-14T21:01:39.814Z,96680.94
2022-12-14T21:04:07.691Z,96684.09
2022-12-14T21:06:37.907Z,96679.19
2022-12-14T21:09:05.652Z,96685.44
2022-12-14T21:11:53.454Z,96686.25
2022-12-14T21:14:21.397Z,96679.63
2022-12-14T21:16:48.754Z,96691.78
2022-12-14T21:19:16.742Z,96689.84
2022-12-14T21:21:49.703Z,96689.72
2022-12-14T21:24:44.781Z,96688.78
2022-12-14T21:27:19.495Z,96688.38
2022-12-14T21:29:47.110Z,96691.66
2022-12-14T21:32:15.473Z,96692.41
2022-12-14T21:34:42.953Z,96700.31
2022-12-14T21:37:10.292Z,96710.69
2022-12-14T21:39:37.671Z,96702.84
2022-12-14T21:42:12.850Z,96710.44
2022-12-14T21:44:44.146Z,96714.66
2022-12-14T21:47:16.506Z,96708.59
2022-12-14T21:49:44.778Z,96723.00
2022-12-14T21:52:14.491Z,96727.75
2022-12-14T21:54:42.020Z,96724.25
2022-12-14T21:57:32.326Z,96731.66
2022-12-14T21:59:59.515Z,96731.66
2022-12-14T22:02:27.029Z,96730.78
2022-12-14T22:05:00.959Z,96726.47
2022-12-14T22:07:33.154Z,96727.81
2022-12-14T22:10:00.310Z,96729.00
2022-12-14T22:12:27.502Z,96729.47
2022-12-14T22:14:54.624Z,96730.06
2022-12-14T22:17:21.736Z,96732.91
2022-12-14T22:19:50.835Z,96737.81
2022-12-14T22:22:18.161Z,96738.25
2022-12-14T22:24:48.333Z,96734.97
2022-12-14T22:27:15.418Z,96737.66
2022-12-14T22:29:42.498Z,96744.47
2022-12-14T22:32:11.553Z,96745.13
2022-12-14T22:34:38.753Z,96742.88
2022-12-14T22:37:05.993Z,96747.66
2022-12-14T22:39:33.236Z,96757.56
2022-12-14T22:42:00.412Z,96765.69
2022-12-14T22:44:27.466Z,96764.66
2022-12-14T22:46:54.614Z,96758.44
2022-12-14T22:49:21.727Z,96754.47
2022-12-14T22:51:51.029Z,96747.34
2022-12-14T22:54:25.498Z,96752.81
2022-12-14T22:57:03.229Z,96753.69
2022-12-14T22:59:45.225Z,96746.13
2022-12-14T23:02:12.484Z,96752.06
2022-12-14T23:04:39.832Z,96752.34
2022-12-14T23:07:07.111Z,96761.22
2022-12-14T23:09:52.864Z,96757.66
2022-12-14T23:12:39.501Z,96765.34
2022-12-14T23:15:25.676Z,96760.47
2022-12-14T23:18:19.755Z,96772.28
2022-12-14T23:21:05.528Z,96773.13
2022-12-14T23:23:51.185Z,96768.56
2022-12-14T23:26:36.769Z,96777.69
2022-12-14T23:29:22.370Z,96771.34
2022-12-14T23:32:08.122Z,96776.34
2022-12-14T23:34:53.533Z,96778.25
2022-12-14T23:37:39.178Z,96772.16
2022-12-14T23:40:25.493Z,96771.75
2022-12-14T23:43:11.151Z,96768.16
2022-12-14T23:45:56.812Z,96768.88
2022-12-14T23:48:42.245Z,96777.13
2022-12-14T23:51:27.563Z,96771.63
2022-12-14T23:54:13.345Z,96773.78
2022-12-14T23:56:58.865Z,96785.88
2022-12-14T23:59:44.777Z,96788.53
